sensor_id;sensor_type;location;lat;lon;timestamp;P1;durP1;ratioP1;P2;durP2;ratioP2
22270;SDS011;11304;53.520;10.104;2024-02-21T00:00:49;39.63;;;19.67;;
22270;SDS011;11304;53.520;10.104;2024-02-21T00:03:15;41.20;;;19.50;;
22270;SDS011;11304;53.520;10.104;2024-02-21T00:05:41;38.50;;;19.73;;
22270;SDS011;11304;53.520;10.104;2024-02-21T00:08:07;39.22;;;19.98;;
22270;SDS011;11304;53.520;10.104;2024-02-21T00:10:33;38.22;;;18.83;;
22270;SDS011;11304;53.520;10.104;2024-02-21T00:13:00;42.90;;;20.23;;
22270;SDS011;11304;53.520;10.104;2024-02-21T00:15:26;40.00;;;20.13;;
22270;SDS011;11304;53.520;10.104;2024-02-21T00:17:52;38.70;;;20.48;;
22270;SDS011;11304;53.520;10.104;2024-02-21T00:20:18;41.90;;;21.13;;
22270;SDS011;11304;53.520;10.104;2024-02-21T00:22:45;36.80;;;19.98;;
22270;SDS011;11304;53.520;10.104;2024-02-21T00:25:11;44.83;;;22.15;;
22270;SDS011;11304;53.520;10.104;2024-02-21T00:27:37;43.90;;;21.55;;
22270;SDS011;11304;53.520;10.104;2024-02-21T00:30:07;34.90;;;20.05;;
22270;SDS011;11304;53.520;10.104;2024-02-21T00:32:33;44.47;;;21.17;;
22270;SDS011;11304;53.520;10.104;2024-02-21T00:34:59;41.25;;;21.17;;
22270;SDS011;11304;53.520;10.104;2024-02-21T00:37:26;41.67;;;22.17;;
22270;SDS011;11304;53.520;10.104;2024-02-21T00:39:53;36.20;;;20.58;;
22270;SDS011;11304;53.520;10.104;2024-02-21T00:42:19;39.10;;;19.42;;
22270;SDS011;11304;53.520;10.104;2024-02-21T00:44:46;39.42;;;21.48;;
22270;SDS011;11304;53.520;10.104;2024-02-21T00:47:12;42.15;;;21.15;;
22270;SDS011;11304;53.520;10.104;2024-02-21T00:49:38;40.55;;;21.83;;
22270;SDS011;11304;53.520;10.104;2024-02-21T00:52:04;36.90;;;21.35;;
22270;SDS011;11304;53.520;10.104;2024-02-21T00:54:30;45.33;;;23.92;;
22270;SDS011;11304;53.520;10.104;2024-02-21T00:56:56;43.53;;;23.42;;
22270;SDS011;11304;53.520;10.104;2024-02-21T00:59:22;43.78;;;24.23;;
22270;SDS011;11304;53.520;10.104;2024-02-21T01:01:48;44.78;;;23.90;;
22270;SDS011;11304;53.520;10.104;2024-02-21T01:04:14;43.05;;;24.02;;
22270;SDS011;11304;53.520;10.104;2024-02-21T01:06:40;46.17;;;23.30;;
22270;SDS011;11304;53.520;10.104;2024-02-21T01:09:09;47.78;;;24.35;;
22270;SDS011;11304;53.520;10.104;2024-02-21T01:11:35;42.05;;;23.77;;
22270;SDS011;11304;53.520;10.104;2024-02-21T01:14:01;46.88;;;24.05;;
22270;SDS011;11304;53.520;10.104;2024-02-21T01:16:27;39.90;;;24.58;;
22270;SDS011;11304;53.520;10.104;2024-02-21T01:18:53;46.58;;;26.17;;
22270;SDS011;11304;53.520;10.104;2024-02-21T01:21:19;46.88;;;25.52;;
22270;SDS011;11304;53.520;10.104;2024-02-21T01:23:45;47.35;;;25.73;;
22270;SDS011;11304;53.520;10.104;2024-02-21T01:26:11;44.75;;;26.23;;
22270;SDS011;11304;53.520;10.104;2024-02-21T01:28:39;44.47;;;26.08;;
22270;SDS011;11304;53.520;10.104;2024-02-21T01:31:05;42.40;;;25.45;;
22270;SDS011;11304;53.520;10.104;2024-02-21T01:33:32;47.40;;;27.33;;
22270;SDS011;11304;53.520;10.104;2024-02-21T01:36:01;50.28;;;27.08;;
22270;SDS011;11304;53.520;10.104;2024-02-21T01:38:27;48.85;;;26.02;;
22270;SDS011;11304;53.520;10.104;2024-02-21T01:40:53;40.90;;;26.20;;
22270;SDS011;11304;53.520;10.104;2024-02-21T01:43:20;41.78;;;24.52;;
22270;SDS011;11304;53.520;10.104;2024-02-21T01:45:46;45.67;;;25.42;;
22270;SDS011;11304;53.520;10.104;2024-02-21T01:48:14;32.15;;;19.08;;
22270;SDS011;11304;53.520;10.104;2024-02-21T01:50:41;38.60;;;25.08;;
22270;SDS011;11304;53.520;10.104;2024-02-21T01:53:07;40.15;;;24.52;;
22270;SDS011;11304;53.520;10.104;2024-02-21T01:55:33;40.75;;;26.45;;
22270;SDS011;11304;53.520;10.104;2024-02-21T01:58:00;40.97;;;24.48;;
22270;SDS011;11304;53.520;10.104;2024-02-21T02:00:26;36.92;;;25.65;;
22270;SDS011;11304;53.520;10.104;2024-02-21T02:02:52;48.05;;;25.98;;
22270;SDS011;11304;53.520;10.104;2024-02-21T02:05:19;43.75;;;25.98;;
22270;SDS011;11304;53.520;10.104;2024-02-21T02:07:46;42.85;;;25.92;;
22270;SDS011;11304;53.520;10.104;2024-02-21T02:10:12;39.97;;;25.92;;
22270;SDS011;11304;53.520;10.104;2024-02-21T02:12:38;42.42;;;25.73;;
22270;SDS011;11304;53.520;10.104;2024-02-21T02:15:04;45.83;;;25.17;;
22270;SDS011;11304;53.520;10.104;2024-02-21T02:17:31;38.40;;;25.67;;
22270;SDS011;11304;53.520;10.104;2024-02-21T02:19:57;44.75;;;26.50;;
22270;SDS011;11304;53.520;10.104;2024-02-21T02:22:28;39.42;;;26.42;;
22270;SDS011;11304;53.520;10.104;2024-02-21T02:24:54;43.28;;;27.65;;
22270;SDS011;11304;53.520;10.104;2024-02-21T02:27:20;45.25;;;26.63;;
22270;SDS011;11304;53.520;10.104;2024-02-21T02:29:48;42.90;;;26.63;;
22270;SDS011;11304;53.520;10.104;2024-02-21T02:32:14;41.95;;;26.50;;
22270;SDS011;11304;53.520;10.104;2024-02-21T02:34:40;41.38;;;28.63;;
22270;SDS011;11304;53.520;10.104;2024-02-21T02:37:06;45.10;;;27.50;;
22270;SDS011;11304;53.520;10.104;2024-02-21T02:39:32;45.17;;;26.73;;
22270;SDS011;11304;53.520;10.104;2024-02-21T02:41:58;47.38;;;27.63;;
22270;SDS011;11304;53.520;10.104;2024-02-21T02:44:25;43.15;;;27.83;;
22270;SDS011;11304;53.520;10.104;2024-02-21T02:46:51;43.80;;;28.00;;
22270;SDS011;11304;53.520;10.104;2024-02-21T02:49:17;46.05;;;28.73;;
22270;SDS011;11304;53.520;10.104;2024-02-21T02:51:43;48.15;;;29.45;;
22270;SDS011;11304;53.520;10.104;2024-02-21T02:54:09;48.67;;;28.58;;
22270;SDS011;11304;53.520;10.104;2024-02-21T02:56:35;52.75;;;28.35;;
22270;SDS011;11304;53.520;10.104;2024-02-21T02:59:01;42.55;;;28.38;;
22270;SDS011;11304;53.520;10.104;2024-02-21T03:01:28;47.33;;;29.42;;
22270;SDS011;11304;53.520;10.104;2024-02-21T03:03:54;48.75;;;29.55;;
22270;SDS011;11304;53.520;10.104;2024-02-21T03:06:20;46.30;;;28.95;;
22270;SDS011;11304;53.520;10.104;2024-02-21T03:08:46;48.17;;;28.70;;
22270;SDS011;11304;53.520;10.104;2024-02-21T03:11:13;51.25;;;29.25;;
22270;SDS011;11304;53.520;10.104;2024-02-21T03:13:39;50.03;;;28.02;;
22270;SDS011;11304;53.520;10.104;2024-02-21T03:16:05;52.00;;;29.25;;
22270;SDS011;11304;53.520;10.104;2024-02-21T03:18:31;47.85;;;30.33;;
22270;SDS011;11304;53.520;10.104;2024-02-21T03:20:57;45.97;;;28.67;;
22270;SDS011;11304;53.520;10.104;2024-02-21T03:23:23;53.65;;;29.98;;
22270;SDS011;11304;53.520;10.104;2024-02-21T03:25:49;54.38;;;30.63;;
22270;SDS011;11304;53.520;10.104;2024-02-21T03:28:16;52.15;;;28.45;;
22270;SDS011;11304;53.520;10.104;2024-02-21T03:30:42;48.25;;;28.00;;
22270;SDS011;11304;53.520;10.104;2024-02-21T03:33:08;39.00;;;26.48;;
22270;SDS011;11304;53.520;10.104;2024-02-21T03:35:34;51.42;;;27.92;;
22270;SDS011;11304;53.520;10.104;2024-02-21T03:38:00;49.60;;;27.50;;
22270;SDS011;11304;53.520;10.104;2024-02-21T03:40:26;40.55;;;24.60;;
22270;SDS011;11304;53.520;10.104;2024-02-21T03:42:52;55.70;;;27.27;;
22270;SDS011;11304;53.520;10.104;2024-02-21T03:45:18;51.78;;;25.88;;
22270;SDS011;11304;53.520;10.104;2024-02-21T03:47:44;39.05;;;25.85;;
22270;SDS011;11304;53.520;10.104;2024-02-21T03:50:10;44.67;;;25.77;;
22270;SDS011;11304;53.520;10.104;2024-02-21T03:52:36;43.40;;;25.63;;
22270;SDS011;11304;53.520;10.104;2024-02-21T03:55:03;43.25;;;25.67;;
22270;SDS011;11304;53.520;10.104;2024-02-21T03:57:29;45.45;;;26.02;;
22270;SDS011;11304;53.520;10.104;2024-02-21T03:59:55;44.40;;;24.80;;
22270;SDS011;11304;53.520;10.104;2024-02-21T04:02:21;46.72;;;25.30;;
22270;SDS011;11304;53.520;10.104;2024-02-21T04:04:47;45.05;;;25.30;;
22270;SDS011;11304;53.520;10.104;2024-02-21T04:07:14;47.67;;;25.20;;
22270;SDS011;11304;53.520;10.104;2024-02-21T04:09:40;39.45;;;25.05;;
22270;SDS011;11304;53.520;10.104;2024-02-21T04:12:07;44.00;;;24.80;;
22270;SDS011;11304;53.520;10.104;2024-02-21T04:14:34;41.40;;;25.25;;
22270;SDS011;11304;53.520;10.104;2024-02-21T04:17:00;45.83;;;26.25;;
22270;SDS011;11304;53.520;10.104;2024-02-21T04:19:27;41.80;;;26.60;;
22270;SDS011;11304;53.520;10.104;2024-02-21T04:21:53;47.97;;;26.88;;
22270;SDS011;11304;53.520;10.104;2024-02-21T04:24:19;42.40;;;26.20;;
22270;SDS011;11304;53.520;10.104;2024-02-21T04:26:45;48.25;;;28.95;;
22270;SDS011;11304;53.520;10.104;2024-02-21T04:29:11;42.83;;;25.85;;
22270;SDS011;11304;53.520;10.104;2024-02-21T04:31:37;44.38;;;25.42;;
22270;SDS011;11304;53.520;10.104;2024-02-21T04:34:03;42.03;;;24.90;;
22270;SDS011;11304;53.520;10.104;2024-02-21T04:36:29;42.38;;;25.88;;
22270;SDS011;11304;53.520;10.104;2024-02-21T04:38:55;41.80;;;24.63;;
22270;SDS011;11304;53.520;10.104;2024-02-21T04:41:21;43.35;;;25.02;;
22270;SDS011;11304;53.520;10.104;2024-02-21T04:43:47;41.75;;;24.85;;
22270;SDS011;11304;53.520;10.104;2024-02-21T04:46:13;43.08;;;24.48;;
22270;SDS011;11304;53.520;10.104;2024-02-21T04:48:40;41.90;;;24.83;;
22270;SDS011;11304;53.520;10.104;2024-02-21T04:51:06;44.20;;;25.33;;
22270;SDS011;11304;53.520;10.104;2024-02-21T04:53:32;39.38;;;24.85;;
22270;SDS011;11304;53.520;10.104;2024-02-21T04:55:58;38.10;;;23.45;;
22270;SDS011;11304;53.520;10.104;2024-02-21T04:58:24;40.78;;;24.17;;
22270;SDS011;11304;53.520;10.104;2024-02-21T05:00:50;39.65;;;23.33;;
22270;SDS011;11304;53.520;10.104;2024-02-21T05:03:18;36.95;;;24.10;;
22270;SDS011;11304;53.520;10.104;2024-02-21T05:05:44;39.20;;;24.13;;
22270;SDS011;11304;53.520;10.104;2024-02-21T05:08:10;36.45;;;22.77;;
22270;SDS011;11304;53.520;10.104;2024-02-21T05:10:36;34.40;;;22.92;;
22270;SDS011;11304;53.520;10.104;2024-02-21T05:13:02;36.42;;;22.52;;
22270;SDS011;11304;53.520;10.104;2024-02-21T05:15:29;28.05;;;21.92;;
22270;SDS011;11304;53.520;10.104;2024-02-21T05:17:56;30.83;;;21.83;;
22270;SDS011;11304;53.520;10.104;2024-02-21T05:20:22;33.10;;;22.42;;
22270;SDS011;11304;53.520;10.104;2024-02-21T05:22:48;35.40;;;23.13;;
22270;SDS011;11304;53.520;10.104;2024-02-21T05:25:14;31.15;;;22.55;;
22270;SDS011;11304;53.520;10.104;2024-02-21T05:27:40;34.80;;;22.02;;
22270;SDS011;11304;53.520;10.104;2024-02-21T05:30:06;33.05;;;23.15;;
22270;SDS011;11304;53.520;10.104;2024-02-21T05:32:33;33.78;;;21.88;;
22270;SDS011;11304;53.520;10.104;2024-02-21T05:34:59;32.72;;;21.60;;
22270;SDS011;11304;53.520;10.104;2024-02-21T05:37:25;30.33;;;20.63;;
22270;SDS011;11304;53.520;10.104;2024-02-21T05:39:51;28.73;;;21.52;;
22270;SDS011;11304;53.520;10.104;2024-02-21T05:42:17;27.02;;;19.65;;
22270;SDS011;11304;53.520;10.104;2024-02-21T05:44:43;26.88;;;18.67;;
22270;SDS011;11304;53.520;10.104;2024-02-21T05:47:09;30.10;;;19.15;;
22270;SDS011;11304;53.520;10.104;2024-02-21T05:49:37;24.95;;;18.67;;
22270;SDS011;11304;53.520;10.104;2024-02-21T05:52:03;25.42;;;19.45;;
22270;SDS011;11304;53.520;10.104;2024-02-21T05:54:31;25.63;;;17.70;;
22270;SDS011;11304;53.520;10.104;2024-02-21T05:56:57;23.27;;;16.73;;
22270;SDS011;11304;53.520;10.104;2024-02-21T05:59:23;21.20;;;15.82;;
22270;SDS011;11304;53.520;10.104;2024-02-21T06:01:56;20.95;;;16.13;;
22270;SDS011;11304;53.520;10.104;2024-02-21T06:04:22;20.73;;;16.23;;
22270;SDS011;11304;53.520;10.104;2024-02-21T06:06:48;21.73;;;15.88;;
22270;SDS011;11304;53.520;10.104;2024-02-21T06:09:14;20.45;;;15.80;;
22270;SDS011;11304;53.520;10.104;2024-02-21T06:11:41;20.08;;;15.75;;
22270;SDS011;11304;53.520;10.104;2024-02-21T06:14:07;23.30;;;16.10;;
22270;SDS011;11304;53.520;10.104;2024-02-21T06:16:33;19.25;;;14.95;;
22270;SDS011;11304;53.520;10.104;2024-02-21T06:18:59;18.52;;;14.75;;
22270;SDS011;11304;53.520;10.104;2024-02-21T06:21:28;19.25;;;14.88;;
22270;SDS011;11304;53.520;10.104;2024-02-21T06:23:54;18.42;;;13.65;;
22270;SDS011;11304;53.520;10.104;2024-02-21T06:26:20;17.55;;;13.18;;
22270;SDS011;11304;53.520;10.104;2024-02-21T06:28:46;19.40;;;13.88;;
22270;SDS011;11304;53.520;10.104;2024-02-21T06:31:12;16.48;;;13.35;;
22270;SDS011;11304;53.520;10.104;2024-02-21T06:33:40;16.95;;;13.25;;
22270;SDS011;11304;53.520;10.104;2024-02-21T06:36:06;14.82;;;12.10;;
22270;SDS011;11304;53.520;10.104;2024-02-21T06:38:32;16.13;;;11.80;;
22270;SDS011;11304;53.520;10.104;2024-02-21T06:40:59;17.88;;;12.23;;
22270;SDS011;11304;53.520;10.104;2024-02-21T06:43:27;14.45;;;11.35;;
22270;SDS011;11304;53.520;10.104;2024-02-21T06:45:53;13.68;;;11.35;;
22270;SDS011;11304;53.520;10.104;2024-02-21T06:48:21;14.52;;;11.52;;
22270;SDS011;11304;53.520;10.104;2024-02-21T06:50:47;16.48;;;11.68;;
22270;SDS011;11304;53.520;10.104;2024-02-21T06:53:13;15.55;;;11.82;;
22270;SDS011;11304;53.520;10.104;2024-02-21T06:55:39;18.00;;;11.43;;
22270;SDS011;11304;53.520;10.104;2024-02-21T06:58:06;13.57;;;11.10;;
22270;SDS011;11304;53.520;10.104;2024-02-21T07:00:36;15.63;;;11.27;;
22270;SDS011;11304;53.520;10.104;2024-02-21T07:03:02;14.85;;;11.25;;
22270;SDS011;11304;53.520;10.104;2024-02-21T07:05:28;14.27;;;11.00;;
22270;SDS011;11304;53.520;10.104;2024-02-21T07:07:54;15.52;;;11.30;;
22270;SDS011;11304;53.520;10.104;2024-02-21T07:10:20;15.10;;;11.05;;
22270;SDS011;11304;53.520;10.104;2024-02-21T07:12:46;14.20;;;11.48;;
22270;SDS011;11304;53.520;10.104;2024-02-21T07:15:13;14.68;;;11.27;;
22270;SDS011;11304;53.520;10.104;2024-02-21T07:17:39;13.13;;;11.10;;
22270;SDS011;11304;53.520;10.104;2024-02-21T07:20:06;16.23;;;11.65;;
22270;SDS011;11304;53.520;10.104;2024-02-21T07:22:32;14.77;;;11.40;;
22270;SDS011;11304;53.520;10.104;2024-02-21T07:24:58;14.50;;;11.88;;
22270;SDS011;11304;53.520;10.104;2024-02-21T07:27:24;13.95;;;11.73;;
22270;SDS011;11304;53.520;10.104;2024-02-21T07:32:18;15.88;;;12.45;;
22270;SDS011;11304;53.520;10.104;2024-02-21T07:34:45;15.43;;;12.00;;
22270;SDS011;11304;53.520;10.104;2024-02-21T07:37:11;13.68;;;11.90;;
22270;SDS011;11304;53.520;10.104;2024-02-21T07:39:37;14.40;;;12.57;;
22270;SDS011;11304;53.520;10.104;2024-02-21T07:42:03;15.52;;;12.30;;
22270;SDS011;11304;53.520;10.104;2024-02-21T07:44:29;12.45;;;11.10;;
22270;SDS011;11304;53.520;10.104;2024-02-21T07:46:56;12.98;;;11.27;;
22270;SDS011;11304;53.520;10.104;2024-02-21T07:49:22;12.25;;;10.98;;
22270;SDS011;11304;53.520;10.104;2024-02-21T07:51:48;12.23;;;10.90;;
22270;SDS011;11304;53.520;10.104;2024-02-21T07:54:14;11.57;;;9.95;;
22270;SDS011;11304;53.520;10.104;2024-02-21T07:56:41;13.05;;;10.00;;
22270;SDS011;11304;53.520;10.104;2024-02-21T07:59:07;14.65;;;10.48;;
22270;SDS011;11304;53.520;10.104;2024-02-21T08:01:33;10.63;;;9.50;;
22270;SDS011;11304;53.520;10.104;2024-02-21T08:03:59;10.50;;;8.48;;
22270;SDS011;11304;53.520;10.104;2024-02-21T08:06:26;8.95;;;7.90;;
22270;SDS011;11304;53.520;10.104;2024-02-21T08:08:52;10.52;;;7.50;;
22270;SDS011;11304;53.520;10.104;2024-02-21T08:11:18;7.82;;;6.40;;
22270;SDS011;11304;53.520;10.104;2024-02-21T08:13:44;7.68;;;6.50;;
22270;SDS011;11304;53.520;10.104;2024-02-21T08:16:10;11.43;;;7.05;;
22270;SDS011;11304;53.520;10.104;2024-02-21T08:18:36;9.52;;;7.65;;
22270;SDS011;11304;53.520;10.104;2024-02-21T08:21:03;10.30;;;7.97;;
22270;SDS011;11304;53.520;10.104;2024-02-21T08:23:29;12.07;;;8.55;;
22270;SDS011;11304;53.520;10.104;2024-02-21T08:25:56;11.07;;;8.48;;
22270;SDS011;11304;53.520;10.104;2024-02-21T08:28:22;12.43;;;8.95;;
22270;SDS011;11304;53.520;10.104;2024-02-21T08:30:48;11.13;;;7.18;;
22270;SDS011;11304;53.520;10.104;2024-02-21T08:33:16;10.65;;;5.10;;
22270;SDS011;11304;53.520;10.104;2024-02-21T08:35:43;12.40;;;4.68;;
22270;SDS011;11304;53.520;10.104;2024-02-21T08:38:09;9.00;;;3.17;;
22270;SDS011;11304;53.520;10.104;2024-02-21T08:40:35;17.58;;;3.80;;
22270;SDS011;11304;53.520;10.104;2024-02-21T08:43:02;16.48;;;4.00;;
22270;SDS011;11304;53.520;10.104;2024-02-21T08:45:28;14.57;;;3.38;;
22270;SDS011;11304;53.520;10.104;2024-02-21T08:47:54;21.40;;;4.45;;
22270;SDS011;11304;53.520;10.104;2024-02-21T08:50:20;29.50;;;5.85;;
22270;SDS011;11304;53.520;10.104;2024-02-21T08:52:46;22.05;;;4.90;;
22270;SDS011;11304;53.520;10.104;2024-02-21T08:55:12;52.60;;;8.20;;
22270;SDS011;11304;53.520;10.104;2024-02-21T08:57:39;12.38;;;3.80;;
22270;SDS011;11304;53.520;10.104;2024-02-21T09:00:05;15.00;;;3.55;;
22270;SDS011;11304;53.520;10.104;2024-02-21T09:02:40;12.13;;;3.05;;
22270;SDS011;11304;53.520;10.104;2024-02-21T09:05:09;10.50;;;4.13;;
22270;SDS011;11304;53.520;10.104;2024-02-21T09:07:35;10.55;;;3.13;;
22270;SDS011;11304;53.520;10.104;2024-02-21T09:10:01;11.00;;;3.20;;
22270;SDS011;11304;53.520;10.104;2024-02-21T09:12:28;10.40;;;3.13;;
22270;SDS011;11304;53.520;10.104;2024-02-21T09:14:54;19.95;;;4.07;;
22270;SDS011;11304;53.520;10.104;2024-02-21T09:17:20;14.57;;;3.50;;
22270;SDS011;11304;53.520;10.104;2024-02-21T09:19:47;13.82;;;3.95;;
22270;SDS011;11304;53.520;10.104;2024-02-21T09:22:13;13.27;;;3.92;;
22270;SDS011;11304;53.520;10.104;2024-02-21T09:24:39;13.43;;;3.20;;
22270;SDS011;11304;53.520;10.104;2024-02-21T09:27:05;14.40;;;3.28;;
22270;SDS011;11304;53.520;10.104;2024-02-21T09:29:31;15.20;;;3.05;;
22270;SDS011;11304;53.520;10.104;2024-02-21T09:32:01;14.73;;;3.05;;
22270;SDS011;11304;53.520;10.104;2024-02-21T09:34:27;7.55;;;2.75;;
22270;SDS011;11304;53.520;10.104;2024-02-21T09:36:54;14.07;;;4.30;;
22270;SDS011;11304;53.520;10.104;2024-02-21T09:39:20;12.57;;;3.30;;
22270;SDS011;11304;53.520;10.104;2024-02-21T09:41:47;18.58;;;4.72;;
22270;SDS011;11304;53.520;10.104;2024-02-21T09:44:21;12.02;;;4.45;;
22270;SDS011;11304;53.520;10.104;2024-02-21T09:46:52;10.45;;;3.70;;
22270;SDS011;11304;53.520;10.104;2024-02-21T09:49:29;11.43;;;4.10;;
22270;SDS011;11304;53.520;10.104;2024-02-21T09:51:56;9.55;;;3.25;;
22270;SDS011;11304;53.520;10.104;2024-02-21T09:54:23;11.73;;;3.40;;
22270;SDS011;11304;53.520;10.104;2024-02-21T09:56:49;7.15;;;2.72;;
22270;SDS011;11304;53.520;10.104;2024-02-21T09:59:15;7.63;;;3.33;;
22270;SDS011;11304;53.520;10.104;2024-02-21T10:01:45;6.72;;;2.97;;
22270;SDS011;11304;53.520;10.104;2024-02-21T10:04:15;7.85;;;3.88;;
22270;SDS011;11304;53.520;10.104;2024-02-21T10:06:41;8.38;;;4.20;;
22270;SDS011;11304;53.520;10.104;2024-02-21T10:09:07;7.82;;;5.30;;
22270;SDS011;11304;53.520;10.104;2024-02-21T10:11:33;9.13;;;5.30;;
22270;SDS011;11304;53.520;10.104;2024-02-21T10:14:07;10.52;;;6.13;;
22270;SDS011;11304;53.520;10.104;2024-02-21T10:16:33;8.13;;;6.93;;
22270;SDS011;11304;53.520;10.104;2024-02-21T10:18:59;10.02;;;6.95;;
22270;SDS011;11304;53.520;10.104;2024-02-21T10:21:25;8.65;;;6.78;;
22270;SDS011;11304;53.520;10.104;2024-02-21T10:23:52;10.15;;;8.23;;
22270;SDS011;11304;53.520;10.104;2024-02-21T10:26:18;11.15;;;8.88;;
22270;SDS011;11304;53.520;10.104;2024-02-21T10:28:45;11.80;;;9.40;;
22270;SDS011;11304;53.520;10.104;2024-02-21T10:31:20;19.58;;;12.23;;
22270;SDS011;11304;53.520;10.104;2024-02-21T10:33:53;15.43;;;11.57;;
22270;SDS011;11304;53.520;10.104;2024-02-21T10:36:19;14.57;;;12.82;;
22270;SDS011;11304;53.520;10.104;2024-02-21T10:38:45;21.92;;;14.13;;
22270;SDS011;11304;53.520;10.104;2024-02-21T10:41:13;21.92;;;14.02;;
22270;SDS011;11304;53.520;10.104;2024-02-21T10:43:41;21.15;;;16.13;;
22270;SDS011;11304;53.520;10.104;2024-02-21T10:46:07;29.25;;;16.10;;
22270;SDS011;11304;53.520;10.104;2024-02-21T10:48:43;20.58;;;15.20;;
22270;SDS011;11304;53.520;10.104;2024-02-21T10:53:44;26.58;;;16.63;;
22270;SDS011;11304;53.520;10.104;2024-02-21T10:56:26;27.70;;;16.48;;
22270;SDS011;11304;53.520;10.104;2024-02-21T10:58:54;30.90;;;17.95;;
22270;SDS011;11304;53.520;10.104;2024-02-21T11:01:22;29.37;;;17.90;;
22270;SDS011;11304;53.520;10.104;2024-02-21T11:03:48;28.27;;;18.10;;
22270;SDS011;11304;53.520;10.104;2024-02-21T11:06:16;27.00;;;17.77;;
22270;SDS011;11304;53.520;10.104;2024-02-21T11:08:43;25.17;;;16.77;;
22270;SDS011;11304;53.520;10.104;2024-02-21T11:11:11;28.38;;;17.98;;
22270;SDS011;11304;53.520;10.104;2024-02-21T11:13:42;27.55;;;16.33;;
22270;SDS011;11304;53.520;10.104;2024-02-21T11:16:11;27.35;;;16.73;;
22270;SDS011;11304;53.520;10.104;2024-02-21T11:18:37;28.77;;;16.27;;
22270;SDS011;11304;53.520;10.104;2024-02-21T11:21:04;26.38;;;15.80;;
22270;SDS011;11304;53.520;10.104;2024-02-21T11:23:30;19.83;;;14.32;;
22270;SDS011;11304;53.520;10.104;2024-02-21T11:28:31;27.48;;;15.07;;
22270;SDS011;11304;53.520;10.104;2024-02-21T11:31:07;24.30;;;14.35;;
22270;SDS011;11304;53.520;10.104;2024-02-21T11:33:34;25.80;;;14.27;;
22270;SDS011;11304;53.520;10.104;2024-02-21T11:36:01;24.10;;;14.52;;
22270;SDS011;11304;53.520;10.104;2024-02-21T11:40:55;20.85;;;13.00;;
22270;SDS011;11304;53.520;10.104;2024-02-21T11:43:21;23.27;;;12.90;;
22270;SDS011;11304;53.520;10.104;2024-02-21T11:45:47;23.92;;;12.80;;
22270;SDS011;11304;53.520;10.104;2024-02-21T11:48:14;21.77;;;12.43;;
22270;SDS011;11304;53.520;10.104;2024-02-21T11:50:40;21.02;;;11.63;;
22270;SDS011;11304;53.520;10.104;2024-02-21T11:53:06;20.67;;;12.23;;
22270;SDS011;11304;53.520;10.104;2024-02-21T11:55:32;21.17;;;12.50;;
22270;SDS011;11304;53.520;10.104;2024-02-21T11:57:59;21.52;;;11.13;;
22270;SDS011;11304;53.520;10.104;2024-02-21T12:00:25;16.88;;;10.75;;
22270;SDS011;11304;53.520;10.104;2024-02-21T12:02:51;22.38;;;12.27;;
22270;SDS011;11304;53.520;10.104;2024-02-21T12:05:20;16.60;;;12.02;;
22270;SDS011;11304;53.520;10.104;2024-02-21T12:07:47;18.10;;;10.95;;
22270;SDS011;11304;53.520;10.104;2024-02-21T12:10:13;22.45;;;11.82;;
22270;SDS011;11304;53.520;10.104;2024-02-21T12:12:39;18.92;;;12.05;;
22270;SDS011;11304;53.520;10.104;2024-02-21T12:15:06;18.92;;;11.25;;
22270;SDS011;11304;53.520;10.104;2024-02-21T12:17:32;16.58;;;10.52;;
22270;SDS011;11304;53.520;10.104;2024-02-21T12:19:59;19.20;;;11.77;;
22270;SDS011;11304;53.520;10.104;2024-02-21T12:22:25;19.70;;;11.55;;
22270;SDS011;11304;53.520;10.104;2024-02-21T12:24:53;21.05;;;12.35;;
22270;SDS011;11304;53.520;10.104;2024-02-21T12:27:19;18.20;;;11.98;;
22270;SDS011;11304;53.520;10.104;2024-02-21T12:29:47;19.13;;;12.32;;
22270;SDS011;11304;53.520;10.104;2024-02-21T12:32:13;20.95;;;12.57;;
22270;SDS011;11304;53.520;10.104;2024-02-21T12:34:39;19.48;;;13.30;;
22270;SDS011;11304;53.520;10.104;2024-02-21T12:37:05;19.90;;;13.52;;
22270;SDS011;11304;53.520;10.104;2024-02-21T12:39:32;21.75;;;13.98;;
22270;SDS011;11304;53.520;10.104;2024-02-21T12:41:58;21.90;;;13.77;;
22270;SDS011;11304;53.520;10.104;2024-02-21T12:44:24;22.95;;;13.90;;
22270;SDS011;11304;53.520;10.104;2024-02-21T12:46:50;29.58;;;14.75;;
22270;SDS011;11304;53.520;10.104;2024-02-21T12:49:18;25.35;;;14.75;;
22270;SDS011;11304;53.520;10.104;2024-02-21T12:51:45;23.02;;;14.57;;
22270;SDS011;11304;53.520;10.104;2024-02-21T12:54:14;27.15;;;15.07;;
22270;SDS011;11304;53.520;10.104;2024-02-21T12:59:43;25.10;;;14.88;;
22270;SDS011;11304;53.520;10.104;2024-02-21T13:02:09;31.23;;;16.63;;
22270;SDS011;11304;53.520;10.104;2024-02-21T13:04:35;26.58;;;15.25;;
22270;SDS011;11304;53.520;10.104;2024-02-21T13:07:05;27.58;;;15.63;;
22270;SDS011;11304;53.520;10.104;2024-02-21T13:09:31;20.35;;;13.68;;
22270;SDS011;11304;53.520;10.104;2024-02-21T13:11:57;26.08;;;13.68;;
22270;SDS011;11304;53.520;10.104;2024-02-21T13:14:23;28.50;;;14.77;;
22270;SDS011;11304;53.520;10.104;2024-02-21T13:16:49;26.80;;;14.65;;
22270;SDS011;11304;53.520;10.104;2024-02-21T13:19:15;24.63;;;13.90;;
22270;SDS011;11304;53.520;10.104;2024-02-21T13:21:42;28.13;;;14.63;;
22270;SDS011;11304;53.520;10.104;2024-02-21T13:24:08;22.35;;;13.82;;
22270;SDS011;11304;53.520;10.104;2024-02-21T13:26:34;25.42;;;14.13;;
22270;SDS011;11304;53.520;10.104;2024-02-21T13:29:00;21.90;;;13.30;;
22270;SDS011;11304;53.520;10.104;2024-02-21T13:31:27;21.75;;;13.38;;
22270;SDS011;11304;53.520;10.104;2024-02-21T13:33:53;24.40;;;14.40;;
22270;SDS011;11304;53.520;10.104;2024-02-21T13:36:19;28.75;;;13.75;;
22270;SDS011;11304;53.520;10.104;2024-02-21T13:38:45;24.13;;;14.27;;
22270;SDS011;11304;53.520;10.104;2024-02-21T13:41:12;22.63;;;13.80;;
22270;SDS011;11304;53.520;10.104;2024-02-21T13:43:38;21.58;;;12.55;;
22270;SDS011;11304;53.520;10.104;2024-02-21T13:46:04;24.92;;;12.65;;
22270;SDS011;11304;53.520;10.104;2024-02-21T13:48:34;20.05;;;13.10;;
22270;SDS011;11304;53.520;10.104;2024-02-21T13:51:00;20.50;;;13.43;;
22270;SDS011;11304;53.520;10.104;2024-02-21T13:53:29;21.23;;;12.50;;
22270;SDS011;11304;53.520;10.104;2024-02-21T13:55:55;18.45;;;12.43;;
22270;SDS011;11304;53.520;10.104;2024-02-21T13:58:22;20.58;;;12.63;;
22270;SDS011;11304;53.520;10.104;2024-02-21T14:00:48;21.90;;;12.43;;
22270;SDS011;11304;53.520;10.104;2024-02-21T14:03:14;21.33;;;13.32;;
22270;SDS011;11304;53.520;10.104;2024-02-21T14:05:40;21.77;;;13.32;;
22270;SDS011;11304;53.520;10.104;2024-02-21T14:08:06;21.38;;;13.05;;
22270;SDS011;11304;53.520;10.104;2024-02-21T14:10:33;23.48;;;12.95;;
22270;SDS011;11304;53.520;10.104;2024-02-21T14:12:59;20.70;;;12.23;;
22270;SDS011;11304;53.520;10.104;2024-02-21T14:15:25;23.63;;;12.60;;
22270;SDS011;11304;53.520;10.104;2024-02-21T14:17:51;21.20;;;12.00;;
22270;SDS011;11304;53.520;10.104;2024-02-21T14:20:17;18.02;;;11.40;;